This is the latest recevied weather packets stored in our database for station/object GW1492. If no packets are shown the sender has not sent any weather packets the latest 10 day(s).
| Time | Temp. | Humidity | Pressure | Rain* | Wind** | Luminosity | Snow |
|---|---|---|---|---|---|---|---|
| 1777080998 | 16.67° C | 67% | 1013.2 hPa | 0 mm | - | - | - |
| 1777079539 | 17.22° C | 65% | 1012.8 hPa | 0 mm | - | - | - |
| 1777074887 | 20.56° C | 48% | 1012.5 hPa | 0 mm | - | - | - |
| 1777074146 | 21.11° C | 47% | 1012.5 hPa | 0 mm | - | - | - |
| 1777072697 | 22.22° C | 43% | 1012.1 hPa | 0 mm | - | - | - |
| 1777071621 | 22.78° C | 42% | 1011.8 hPa | 0 mm | - | - | - |
| 1777070175 | 23.33° C | 42% | 1011.8 hPa | 0 mm | - | - | - |
| 1777068397 | 23.33° C | 43% | 1012.5 hPa | 0 mm | - | - | - |
| 1777066228 | 23.33° C | 43% | 1012.5 hPa | 0 mm | - | - | - |
| 1777063721 | 23.89° C | 41% | 1012.5 hPa | 0 mm | - | - | - |
| 1777062654 | 24.44° C | 39% | 1012.5 hPa | 0 mm | - | - | - |
| 1777062288 | 24.44° C | 38% | 1012.5 hPa | 0 mm | - | - | - |
| 1777059394 | 25° C | 40% | 1012.8 hPa | 0 mm | - | - | - |
| 1777025387 | 13.33° C | 70% | 1016.2 hPa | 0 mm | - | - | - |
| 1777019237 | 13.89° C | 67% | 1016.2 hPa | 0 mm | - | - | - |
| 1777017795 | 13.89° C | 67% | 1016.2 hPa | 0 mm | - | - | - |
| 1777017430 | 13.89° C | 67% | 1016.2 hPa | 0 mm | - | - | - |
| 1777016732 | 13.33° C | 67% | 1016.2 hPa | 0 mm | - | - | - |
| 1777014585 | 13.89° C | 65% | 1015.9 hPa | 0 mm | - | - | - |
| 1777014206 | 13.89° C | 66% | 1016.2 hPa | 0 mm | - | - | - |
| 1777012769 | 14.44° C | 65% | 1015.9 hPa | 0 mm | - | - | - |
| 1777007351 | 15° C | 63% | 1016.2 hPa | 0 mm | - | - | - |
| 1777005554 | 15.56° C | 60% | 1016.2 hPa | 0 mm | - | - | - |
| 1777003784 | 15° C | 61% | 1016.2 hPa | 0 mm | - | - | - |
| 1777003433 | 15° C | 62% | 1016.5 hPa | 0 mm | - | - | - |
* Rain since midnight (hover to see other rain measurements)
** Current wind speed in m/s (hover to see current wind gust speed)